Time;durP1;ratioP1;P1;durP2;ratioP2;P2;SDS_P1;SDS_P2;PMS_P1;PMS_P2;Temp;Humidity;BMP_temperature;BMP_pressure;BME280_temperature;BME280_humidity;BME280_pressure;Samples;Min_cycle;Max_cycle;Signal;HPM_P1;HPM_P2
2023/07/09 00:00:48;;;;;;;;;12.00;12.00;;;;;;;;4978734;28;51256;-63
2023/07/09 00:03:14;;;;;;;;;9.67;9.67;;;;;;;;4974970;28;52187;-61
2023/07/09 00:05:39;;;;;;;;;12.33;11.33;;;;;;;;4972427;28;51486;-63
2023/07/09 00:08:04;;;;;;;;;14.00;13.67;;;;;;;;4975112;28;51582;-63
2023/07/09 00:10:30;;;;;;;;;14.00;13.33;;;;;;;;4977430;28;51241;-62
2023/07/09 00:12:56;;;;;;;;;12.33;12.33;;;;;;;;4977663;28;53027;-62
2023/07/09 00:15:21;;;;;;;;;12.00;11.00;;;;;;;;4974418;28;52422;-63
2023/07/09 00:17:46;;;;;;;;;11.00;11.00;;;;;;;;4978873;28;51234;-62
2023/07/09 00:20:13;;;;;;;;;12.00;11.00;;;;;;;;4975575;28;51738;-64
2023/07/09 00:22:42;;;;;;;;;12.33;11.33;;;;;;;;4976089;28;51833;-62
2023/07/09 00:25:13;;;;;;;;;14.00;13.00;;;;;;;;4974551;28;51781;-62
2023/07/09 00:27:39;;;;;;;;;12.00;12.00;;;;;;;;4976435;28;52182;-62
2023/07/09 00:30:07;;;;;;;;;11.33;11.33;;;;;;;;4975140;28;51194;-63
2023/07/09 00:32:33;;;;;;;;;13.67;12.67;;;;;;;;4974848;28;53229;-61
2023/07/09 00:35:00;;;;;;;;;11.33;11.33;;;;;;;;4976677;28;52493;-61
2023/07/09 00:37:25;;;;;;;;;12.00;11.67;;;;;;;;4980315;28;51200;-61
2023/07/09 00:39:51;;;;;;;;;12.00;11.00;;;;;;;;4975247;28;51868;-61
2023/07/09 00:42:18;;;;;;;;;14.33;13.33;;;;;;;;4975566;28;51896;-68
2023/07/09 00:44:45;;;;;;;;;12.00;12.00;;;;;;;;4977021;28;51183;-68
2023/07/09 00:47:30;;;;;;;;;13.00;13.00;;;;;;;;4976323;28;51826;-70
2023/07/09 00:50:00;;;;;;;;;12.00;11.33;;;;;;;;4967101;28;52441;-70
2023/07/09 00:52:33;;;;;;;;;14.00;14.00;;;;;;;;4976510;28;51862;-71
2023/07/09 00:55:00;;;;;;;;;13.33;13.00;;;;;;;;4976314;28;51668;-70
2023/07/09 00:57:26;;;;;;;;;12.67;12.67;;;;;;;;4976611;28;51719;-64
2023/07/09 00:59:55;;;;;;;;;12.33;12.33;;;;;;;;4975615;28;51183;-63
2023/07/09 01:02:23;;;;;;;;;13.67;13.00;;;;;;;;4975734;28;53050;-65
2023/07/09 01:04:49;;;;;;;;;16.33;14.33;;;;;;;;4977662;28;51283;-63
2023/07/09 01:07:14;;;;;;;;;12.33;12.33;;;;;;;;4973070;28;51973;-63
2023/07/09 01:09:41;;;;;;;;;14.67;13.33;;;;;;;;4974628;28;51398;-62
2023/07/09 01:12:07;;;;;;;;;14.00;13.00;;;;;;;;4974829;28;51902;-63
2023/07/09 01:14:35;;;;;;;;;14.67;12.67;;;;;;;;4974959;28;51724;-64
2023/07/09 01:17:02;;;;;;;;;14.00;13.33;;;;;;;;4976478;28;51868;-65
2023/07/09 01:19:29;;;;;;;;;10.67;10.67;;;;;;;;4974610;28;51762;-64
2023/07/09 01:21:56;;;;;;;;;12.33;12.33;;;;;;;;4977252;28;52776;-63
2023/07/09 01:24:39;;;;;;;;;9.00;9.00;;;;;;;;4975815;28;51177;-64
2023/07/09 01:27:05;;;;;;;;;15.67;15.67;;;;;;;;4977334;28;51444;-61
2023/07/09 01:29:33;;;;;;;;;16.00;15.67;;;;;;;;4977117;28;51445;-63
2023/07/09 01:31:58;;;;;;;;;13.00;13.00;;;;;;;;4981142;28;51183;-63
2023/07/09 01:34:25;;;;;;;;;12.33;12.00;;;;;;;;4977966;28;51617;-63
2023/07/09 01:36:51;;;;;;;;;14.00;13.00;;;;;;;;4978897;28;51667;-63
2023/07/09 01:39:16;;;;;;;;;13.00;12.33;;;;;;;;4977954;28;52749;-64
2023/07/09 01:41:42;;;;;;;;;13.33;13.33;;;;;;;;4977505;28;52324;-63
2023/07/09 01:44:07;;;;;;;;;11.00;11.00;;;;;;;;4977415;28;51129;-63
2023/07/09 01:46:32;;;;;;;;;10.33;10.33;;;;;;;;4977912;28;51730;-62
2023/07/09 01:48:57;;;;;;;;;13.00;12.33;;;;;;;;4976595;28;52846;-66
2023/07/09 01:51:24;;;;;;;;;16.67;16.67;;;;;;;;4977119;28;52044;-66
2023/07/09 01:53:49;;;;;;;;;11.33;10.33;;;;;;;;4977203;28;51889;-67
2023/07/09 01:56:14;;;;;;;;;14.00;13.00;;;;;;;;4978665;28;51436;-59
2023/07/09 01:58:41;;;;;;;;;13.00;13.00;;;;;;;;4979496;28;51812;-60
2023/07/09 02:01:06;;;;;;;;;13.00;13.00;;;;;;;;4976750;28;52527;-59
2023/07/09 02:03:31;;;;;;;;;12.67;11.67;;;;;;;;4976351;28;51199;-59
2023/07/09 02:05:59;;;;;;;;;10.33;10.33;;;;;;;;4977708;28;52717;-59
2023/07/09 02:08:25;;;;;;;;;11.67;11.33;;;;;;;;4972041;28;51494;-60
2023/07/09 02:10:50;;;;;;;;;13.00;13.00;;;;;;;;4975868;28;52726;-59
2023/07/09 02:13:15;;;;;;;;;17.00;15.33;;;;;;;;4978506;28;52551;-60
2023/07/09 02:15:43;;;;;;;;;13.33;13.33;;;;;;;;4978124;28;51540;-61
2023/07/09 02:18:09;;;;;;;;;10.00;9.33;;;;;;;;4978388;28;51916;-59
2023/07/09 02:20:34;;;;;;;;;13.33;11.67;;;;;;;;4978293;28;52762;-59
2023/07/09 02:22:59;;;;;;;;;14.00;13.00;;;;;;;;4976810;28;51719;-59
2023/07/09 02:25:24;;;;;;;;;15.00;13.33;;;;;;;;4974053;28;51893;-60
2023/07/09 02:27:49;;;;;;;;;11.33;11.33;;;;;;;;4972640;28;52828;-58
2023/07/09 02:30:15;;;;;;;;;12.33;12.33;;;;;;;;4978322;28;51728;-59
2023/07/09 02:32:41;;;;;;;;;13.00;12.00;;;;;;;;4978092;28;53293;-60
2023/07/09 02:35:07;;;;;;;;;9.33;8.67;;;;;;;;4978123;28;51297;-60
2023/07/09 02:37:33;;;;;;;;;11.67;11.33;;;;;;;;4977100;28;53150;-60
2023/07/09 02:39:58;;;;;;;;;12.67;12.00;;;;;;;;4980819;28;52977;-60
2023/07/09 02:42:23;;;;;;;;;13.33;13.00;;;;;;;;4980382;28;51242;-59
2023/07/09 02:44:48;;;;;;;;;11.00;11.00;;;;;;;;4977278;28;51164;-60
2023/07/09 02:47:14;;;;;;;;;13.33;13.00;;;;;;;;4978233;28;51778;-60
2023/07/09 02:49:39;;;;;;;;;12.00;12.00;;;;;;;;4979219;28;51782;-59
2023/07/09 02:52:05;;;;;;;;;12.67;12.67;;;;;;;;4977989;28;51324;-59
2023/07/09 02:54:31;;;;;;;;;13.00;12.67;;;;;;;;4979342;28;51859;-59
2023/07/09 02:56:56;;;;;;;;;16.33;15.33;;;;;;;;4977776;28;51136;-59
2023/07/09 02:59:22;;;;;;;;;14.00;14.00;;;;;;;;4979061;28;52632;-60
2023/07/09 03:01:47;;;;;;;;;12.33;12.33;;;;;;;;4978128;28;51219;-59
2023/07/09 03:04:13;;;;;;;;;13.33;13.33;;;;;;;;4977883;28;51815;-59
2023/07/09 03:06:38;;;;;;;;;16.00;15.00;;;;;;;;4978284;28;51890;-59
2023/07/09 03:09:04;;;;;;;;;14.00;13.00;;;;;;;;4979571;28;51901;-59
2023/07/09 03:11:30;;;;;;;;;16.00;14.33;;;;;;;;4980478;28;51129;-60
2023/07/09 03:13:56;;;;;;;;;15.67;15.00;;;;;;;;4983734;28;51164;-60
2023/07/09 03:16:21;;;;;;;;;14.67;13.33;;;;;;;;4984105;28;51351;-60
2023/07/09 03:18:46;;;;;;;;;14.00;14.00;;;;;;;;4994432;28;50957;-60
2023/07/09 03:21:11;;;;;;;;;13.00;12.33;;;;;;;;4986151;28;51171;-60
2023/07/09 03:23:36;;;;;;;;;15.33;15.00;;;;;;;;4985370;28;51446;-60
2023/07/09 03:26:02;;;;;;;;;12.33;12.00;;;;;;;;4984737;28;51317;-60
2023/07/09 03:28:27;;;;;;;;;13.00;11.67;;;;;;;;4983912;28;51792;-60
2023/07/09 03:30:54;;;;;;;;;12.33;12.00;;;;;;;;4974020;28;51041;-59
2023/07/09 03:33:19;;;;;;;;;15.33;14.00;;;;;;;;4978917;28;50888;-60
2023/07/09 03:35:44;;;;;;;;;13.00;13.00;;;;;;;;4994131;28;51116;-58
2023/07/09 03:38:10;;;;;;;;;13.00;12.33;;;;;;;;4991322;28;51748;-57
2023/07/09 03:40:37;;;;;;;;;14.67;14.00;;;;;;;;4987261;28;51094;-58
2023/07/09 03:43:02;;;;;;;;;13.00;13.00;;;;;;;;4987747;28;51124;-57
2023/07/09 03:45:27;;;;;;;;;13.00;12.00;;;;;;;;4982095;28;51187;-57
2023/07/09 03:47:52;;;;;;;;;11.67;11.33;;;;;;;;4989416;28;51960;-57
2023/07/09 03:50:18;;;;;;;;;12.67;12.67;;;;;;;;4976410;28;51353;-57
2023/07/09 03:52:43;;;;;;;;;12.00;12.00;;;;;;;;4989654;28;51013;-57
2023/07/09 03:55:08;;;;;;;;;10.67;10.00;;;;;;;;4980709;28;51185;-57
2023/07/09 03:57:34;;;;;;;;;12.67;11.33;;;;;;;;4987201;28;51631;-57
2023/07/09 04:00:00;;;;;;;;;13.00;13.00;;;;;;;;4989030;28;51168;-57
2023/07/09 04:02:25;;;;;;;;;14.00;13.00;;;;;;;;4987583;28;50988;-57
2023/07/09 04:04:50;;;;;;;;;13.67;13.00;;;;;;;;4985009;28;50870;-58
2023/07/09 04:07:16;;;;;;;;;11.33;11.00;;;;;;;;4981734;28;52021;-57
2023/07/09 04:09:41;;;;;;;;;13.00;13.00;;;;;;;;4995389;28;51090;-57
2023/07/09 04:12:07;;;;;;;;;12.67;12.67;;;;;;;;4982099;28;51132;-58
2023/07/09 04:14:32;;;;;;;;;12.67;12.33;;;;;;;;4979198;28;51205;-57
2023/07/09 04:16:57;;;;;;;;;14.00;12.67;;;;;;;;4973546;28;52717;-57
2023/07/09 04:19:23;;;;;;;;;13.33;12.33;;;;;;;;4974515;28;50909;-57
2023/07/09 04:21:48;;;;;;;;;11.00;10.33;;;;;;;;4986570;28;51242;-58
2023/07/09 04:24:15;;;;;;;;;12.33;12.33;;;;;;;;4984176;28;51036;-58
2023/07/09 04:26:40;;;;;;;;;13.00;12.67;;;;;;;;4993132;28;52063;-58
2023/07/09 04:29:06;;;;;;;;;12.67;12.33;;;;;;;;4977502;28;51057;-57
2023/07/09 04:31:31;;;;;;;;;13.00;12.00;;;;;;;;4967956;28;52438;-57
2023/07/09 04:33:56;;;;;;;;;13.67;12.67;;;;;;;;4980466;28;51279;-57
2023/07/09 04:36:21;;;;;;;;;12.33;12.33;;;;;;;;4989004;28;51926;-57
2023/07/09 04:38:47;;;;;;;;;13.67;12.00;;;;;;;;4981677;28;51909;-57
2023/07/09 04:41:12;;;;;;;;;14.67;13.33;;;;;;;;4981717;28;51175;-57
2023/07/09 04:43:37;;;;;;;;;11.67;11.67;;;;;;;;4983172;28;51305;-57
2023/07/09 04:46:02;;;;;;;;;14.00;14.00;;;;;;;;4980473;28;51897;-57
2023/07/09 04:48:27;;;;;;;;;13.00;12.67;;;;;;;;4977992;28;50909;-58
2023/07/09 04:50:52;;;;;;;;;15.00;14.00;;;;;;;;4977579;28;51311;-57
2023/07/09 04:53:18;;;;;;;;;13.67;12.00;;;;;;;;4983910;28;51076;-57
2023/07/09 04:55:44;;;;;;;;;12.00;11.67;;;;;;;;4972846;28;51744;-57
2023/07/09 04:58:09;;;;;;;;;10.67;10.67;;;;;;;;4984562;28;51042;-57
2023/07/09 05:00:34;;;;;;;;;15.00;13.33;;;;;;;;4984293;28;51275;-58
2023/07/09 05:02:59;;;;;;;;;9.33;9.33;;;;;;;;4982729;28;51150;-57
2023/07/09 05:05:25;;;;;;;;;13.33;12.67;;;;;;;;4977071;28;51904;-57
2023/07/09 05:07:50;;;;;;;;;12.00;11.33;;;;;;;;4985242;28;51132;-57
2023/07/09 05:10:15;;;;;;;;;12.00;11.67;;;;;;;;4983579;28;51239;-57
2023/07/09 05:12:48;;;;;;;;;13.33;12.00;;;;;;;;4984675;28;51206;-57
2023/07/09 05:15:13;;;;;;;;;12.33;12.33;;;;;;;;4978765;28;51842;-57
2023/07/09 05:17:38;;;;;;;;;10.67;10.67;;;;;;;;4981525;28;52382;-58
2023/07/09 05:20:04;;;;;;;;;10.33;10.00;;;;;;;;4984725;28;51397;-57
2023/07/09 05:22:29;;;;;;;;;12.00;11.00;;;;;;;;4983422;28;50939;-57
2023/07/09 05:24:54;;;;;;;;;11.00;11.00;;;;;;;;4982162;28;53061;-57
2023/07/09 05:27:19;;;;;;;;;10.33;9.33;;;;;;;;4981974;28;51229;-56
2023/07/09 05:29:44;;;;;;;;;9.67;9.33;;;;;;;;4983752;28;51270;-58
2023/07/09 05:32:10;;;;;;;;;11.00;11.00;;;;;;;;4982110;28;51250;-58
2023/07/09 05:34:35;;;;;;;;;8.00;8.00;;;;;;;;4984476;28;51795;-57
2023/07/09 05:37:00;;;;;;;;;7.33;7.33;;;;;;;;4980689;28;51667;-56
2023/07/09 05:39:25;;;;;;;;;9.00;8.00;;;;;;;;4978331;28;50913;-56
2023/07/09 05:41:50;;;;;;;;;10.00;9.67;;;;;;;;4986712;28;51108;-57
2023/07/09 05:44:16;;;;;;;;;10.00;10.00;;;;;;;;5000161;28;51863;-59
2023/07/09 05:46:41;;;;;;;;;9.00;9.00;;;;;;;;4983903;28;50945;-56
2023/07/09 05:49:06;;;;;;;;;9.67;8.33;;;;;;;;4987099;28;51123;-57
2023/07/09 05:51:32;;;;;;;;;9.00;8.33;;;;;;;;4979610;28;51080;-57
2023/07/09 05:53:57;;;;;;;;;10.33;9.67;;;;;;;;4978579;28;52268;-56
2023/07/09 05:56:22;;;;;;;;;10.67;10.33;;;;;;;;4982998;28;51381;-56
2023/07/09 05:58:47;;;;;;;;;7.67;7.33;;;;;;;;4981297;28;52045;-56
2023/07/09 06:01:13;;;;;;;;;8.00;8.00;;;;;;;;4981207;28;51546;-60
2023/07/09 06:03:38;;;;;;;;;9.00;8.33;;;;;;;;4990647;28;51263;-58
2023/07/09 06:06:03;;;;;;;;;8.33;8.33;;;;;;;;4986693;28;51248;-56
2023/07/09 06:08:29;;;;;;;;;6.67;6.67;;;;;;;;4985614;28;51696;-58
2023/07/09 06:10:56;;;;;;;;;8.67;7.67;;;;;;;;4985034;28;50939;-57
2023/07/09 06:13:21;;;;;;;;;7.00;7.00;;;;;;;;4985535;28;52529;-56
2023/07/09 06:15:48;;;;;;;;;5.67;5.67;;;;;;;;4991874;28;51216;-58
2023/07/09 06:18:13;;;;;;;;;9.00;9.00;;;;;;;;4987618;28;51052;-57
2023/07/09 06:20:38;;;;;;;;;7.33;6.33;;;;;;;;4989288;28;51152;-58
2023/07/09 06:23:03;;;;;;;;;6.33;6.33;;;;;;;;4985841;28;51096;-57
2023/07/09 06:25:29;;;;;;;;;8.00;8.00;;;;;;;;4981210;28;51820;-58
2023/07/09 06:27:54;;;;;;;;;6.00;6.00;;;;;;;;4988043;28;51163;-57
2023/07/09 06:30:19;;;;;;;;;7.00;7.00;;;;;;;;4993585;28;51236;-57
2023/07/09 06:32:44;;;;;;;;;6.00;6.00;;;;;;;;4985048;28;51927;-57
2023/07/09 06:35:10;;;;;;;;;8.00;8.00;;;;;;;;4992606;28;51104;-57
2023/07/09 06:37:35;;;;;;;;;7.00;7.00;;;;;;;;4991972;28;51450;-57
2023/07/09 06:40:02;;;;;;;;;6.67;6.67;;;;;;;;4986163;28;51044;-57
2023/07/09 06:42:27;;;;;;;;;5.67;5.67;;;;;;;;4986402;28;51423;-57
2023/07/09 06:44:52;;;;;;;;;7.33;7.00;;;;;;;;4987945;28;51279;-57
2023/07/09 06:47:17;;;;;;;;;9.00;7.00;;;;;;;;4991942;28;52502;-57
2023/07/09 06:49:42;;;;;;;;;0.00;0.00;;;;;;;;4981804;28;51210;-57
2023/07/09 06:52:10;;;;;;;;;8.67;7.67;;;;;;;;4993755;28;51753;-56
2023/07/09 06:54:35;;;;;;;;;7.33;7.33;;;;;;;;4991997;28;51202;-56
2023/07/09 06:57:01;;;;;;;;;9.00;7.00;;;;;;;;4987109;28;51077;-57
2023/07/09 06:59:26;;;;;;;;;8.00;8.00;;;;;;;;4987074;28;51085;-57
2023/07/09 07:01:51;;;;;;;;;10.33;10.33;;;;;;;;4981873;28;52001;-57
2023/07/09 07:04:16;;;;;;;;;7.67;7.67;;;;;;;;4991320;28;51157;-57
2023/07/09 07:06:41;;;;;;;;;8.33;7.67;;;;;;;;4990446;28;51280;-57
2023/07/09 07:09:07;;;;;;;;;9.00;9.00;;;;;;;;4985963;28;51464;-57
2023/07/09 07:11:32;;;;;;;;;8.33;7.33;;;;;;;;4988721;28;52695;-58
2023/07/09 07:13:58;;;;;;;;;9.00;8.00;;;;;;;;4976869;28;51876;-57
2023/07/09 07:16:23;;;;;;;;;8.00;8.00;;;;;;;;4983493;28;51346;-57
2023/07/09 07:18:48;;;;;;;;;6.00;6.00;;;;;;;;4989185;28;51268;-57
2023/07/09 07:21:13;;;;;;;;;8.00;8.00;;;;;;;;4987981;28;52017;-57
2023/07/09 07:23:38;;;;;;;;;5.67;5.67;;;;;;;;4986096;28;51046;-57
2023/07/09 07:26:04;;;;;;;;;8.00;8.00;;;;;;;;4992466;28;51038;-57
2023/07/09 07:28:29;;;;;;;;;7.67;7.00;;;;;;;;4989835;28;51423;-56
2023/07/09 07:30:58;;;;;;;;;6.33;5.33;;;;;;;;4989193;28;51344;-57
2023/07/09 07:33:23;;;;;;;;;7.67;6.33;;;;;;;;4990559;28;51163;-56
2023/07/09 07:35:49;;;;;;;;;6.00;6.00;;;;;;;;4991651;28;51263;-56
2023/07/09 07:38:14;;;;;;;;;6.00;6.00;;;;;;;;4979481;28;53342;-56
2023/07/09 07:40:43;;;;;;;;;7.00;6.67;;;;;;;;4991184;28;51755;-56
2023/07/09 07:43:08;;;;;;;;;7.33;6.67;;;;;;;;4989805;28;51093;-56
2023/07/09 07:45:33;;;;;;;;;7.33;7.33;;;;;;;;4989628;28;51169;-56
2023/07/09 07:47:58;;;;;;;;;9.33;9.33;;;;;;;;4983616;28;51245;-57
2023/07/09 07:50:24;;;;;;;;;9.00;9.00;;;;;;;;4985974;28;51120;-56
2023/07/09 07:52:49;;;;;;;;;11.67;9.00;;;;;;;;4984677;28;51240;-56
2023/07/09 07:55:14;;;;;;;;;9.00;9.00;;;;;;;;4989586;28;51086;-56
2023/07/09 07:57:39;;;;;;;;;12.00;11.33;;;;;;;;4989863;28;51172;-57
2023/07/09 08:00:05;;;;;;;;;9.33;8.33;;;;;;;;4991516;28;52636;-57
2023/07/09 08:02:30;;;;;;;;;10.00;10.00;;;;;;;;4989718;28;51123;-57
2023/07/09 08:04:56;;;;;;;;;10.33;9.33;;;;;;;;4990216;28;51568;-56
2023/07/09 08:07:21;;;;;;;;;12.33;11.67;;;;;;;;4988591;28;51199;-56
2023/07/09 08:09:47;;;;;;;;;13.00;12.67;;;;;;;;4986456;28;51309;-57
2023/07/09 08:12:12;;;;;;;;;7.67;7.67;;;;;;;;4985984;28;50957;-57
2023/07/09 08:14:38;;;;;;;;;11.00;10.33;;;;;;;;4990814;28;53001;-57
2023/07/09 08:17:04;;;;;;;;;9.33;9.33;;;;;;;;4986801;28;51065;-59
2023/07/09 08:19:30;;;;;;;;;10.67;10.00;;;;;;;;4987771;28;51104;-57
2023/07/09 08:21:55;;;;;;;;;10.00;9.33;;;;;;;;4979239;28;50987;-57
2023/07/09 08:24:20;;;;;;;;;10.00;10.00;;;;;;;;4986553;28;50943;-57
2023/07/09 08:26:46;;;;;;;;;10.00;10.00;;;;;;;;4987218;28;50923;-57
2023/07/09 08:29:11;;;;;;;;;10.33;9.67;;;;;;;;4980573;28;51749;-56
2023/07/09 08:31:36;;;;;;;;;9.67;9.67;;;;;;;;4981837;28;51134;-56
2023/07/09 08:34:01;;;;;;;;;7.00;7.00;;;;;;;;4988845;28;51186;-56
2023/07/09 08:36:27;;;;;;;;;9.00;9.00;;;;;;;;4979293;28;51982;-56
2023/07/09 08:38:52;;;;;;;;;10.33;9.33;;;;;;;;4983727;28;51131;-56
2023/07/09 08:41:27;;;;;;;;;9.67;9.33;;;;;;;;4989541;28;51491;-57
2023/07/09 08:44:11;;;;;;;;;10.00;10.00;;;;;;;;4986605;28;51059;-57
2023/07/09 08:46:42;;;;;;;;;10.33;10.00;;;;;;;;4983750;28;51926;-56
2023/07/09 08:49:14;;;;;;;;;11.00;10.33;;;;;;;;4982728;28;51776;-56
2023/07/09 08:51:42;;;;;;;;;9.00;9.00;;;;;;;;4986251;28;51132;-56
2023/07/09 08:54:13;;;;;;;;;13.33;13.00;;;;;;;;4981624;28;51113;-59
2023/07/09 08:56:38;;;;;;;;;12.33;11.67;;;;;;;;4984788;28;51593;-57
2023/07/09 08:59:03;;;;;;;;;10.67;10.67;;;;;;;;4985073;28;51866;-57
2023/07/09 09:01:33;;;;;;;;;13.67;13.00;;;;;;;;4979263;28;51332;-57
2023/07/09 09:04:02;;;;;;;;;7.00;6.00;;;;;;;;4980538;28;51165;-58
2023/07/09 09:06:29;;;;;;;;;12.00;11.00;;;;;;;;4983561;28;51280;-57
2023/07/09 09:09:01;;;;;;;;;13.00;12.00;;;;;;;;4983420;28;51864;-57
2023/07/09 09:11:35;;;;;;;;;11.33;11.33;;;;;;;;4979189;28;51008;-57
2023/07/09 09:14:03;;;;;;;;;12.00;11.00;;;;;;;;4985624;28;51105;-58
2023/07/09 09:16:30;;;;;;;;;11.00;11.00;;;;;;;;4987396;28;51388;-58
2023/07/09 09:18:58;;;;;;;;;11.00;10.00;;;;;;;;4986325;28;52066;-59
2023/07/09 09:21:26;;;;;;;;;9.00;9.00;;;;;;;;4987439;28;51073;-57
2023/07/09 09:23:54;;;;;;;;;9.33;8.00;;;;;;;;4984061;28;51128;-57
2023/07/09 09:26:32;;;;;;;;;9.00;9.00;;;;;;;;4983170;28;51399;-56
2023/07/09 09:28:58;;;;;;;;;10.67;9.67;;;;;;;;4983993;28;52768;-57
2023/07/09 09:31:24;;;;;;;;;10.33;9.67;;;;;;;;4979619;28;51290;-57
2023/07/09 09:33:50;;;;;;;;;5.33;5.33;;;;;;;;4987309;28;51145;-57
2023/07/09 09:36:18;;;;;;;;;9.00;9.00;;;;;;;;4983700;28;51355;-57
2023/07/09 09:38:44;;;;;;;;;10.33;9.33;;;;;;;;4984572;28;51175;-57
2023/07/09 09:41:12;;;;;;;;;8.00;8.00;;;;;;;;4983671;28;51187;-57
2023/07/09 09:43:41;;;;;;;;;8.00;8.00;;;;;;;;4981582;28;51411;-57
2023/07/09 09:46:06;;;;;;;;;11.00;11.00;;;;;;;;4982699;28;51333;-57
2023/07/09 09:48:32;;;;;;;;;9.67;9.67;;;;;;;;4988341;28;52136;-57
2023/07/09 09:51:01;;;;;;;;;11.00;10.00;;;;;;;;4983239;28;51135;-57
2023/07/09 09:53:26;;;;;;;;;9.33;9.33;;;;;;;;4986780;28;51225;-57
2023/07/09 09:55:53;;;;;;;;;9.33;9.33;;;;;;;;4986424;28;51275;-57
2023/07/09 09:58:18;;;;;;;;;11.67;11.67;;;;;;;;4991703;28;51856;-57
2023/07/09 10:00:48;;;;;;;;;11.00;10.67;;;;;;;;4984212;28;51178;-57
2023/07/09 10:03:13;;;;;;;;;14.67;12.67;;;;;;;;4983634;28;51112;-57
2023/07/09 10:05:44;;;;;;;;;11.33;11.33;;;;;;;;4988854;28;51053;-58
2023/07/09 10:08:14;;;;;;;;;9.33;9.33;;;;;;;;4987200;28;52061;-57
2023/07/09 10:10:43;;;;;;;;;13.00;12.00;;;;;;;;4983650;28;51232;-58
2023/07/09 10:13:30;;;;;;;;;11.33;11.00;;;;;;;;4990886;28;51165;-57
2023/07/09 10:16:06;;;;;;;;;10.00;10.00;;;;;;;;4984075;28;51379;-56
2023/07/09 10:18:48;;;;;;;;;12.33;10.67;;;;;;;;4986349;28;52244;-57
2023/07/09 10:21:34;;;;;;;;;12.33;12.00;;;;;;;;4988199;28;51046;-56
2023/07/09 10:24:14;;;;;;;;;9.33;8.33;;;;;;;;4981928;28;50898;-57
2023/07/09 10:26:43;;;;;;;;;13.67;13.00;;;;;;;;4987466;28;51092;-57
2023/07/09 10:29:11;;;;;;;;;13.00;12.00;;;;;;;;4981958;28;51137;-58
2023/07/09 10:31:36;;;;;;;;;11.00;9.33;;;;;;;;4990365;28;51926;-58
2023/07/09 10:34:11;;;;;;;;;11.00;9.67;;;;;;;;4987895;28;51049;-58
2023/07/09 10:36:51;;;;;;;;;12.00;11.00;;;;;;;;4989328;28;50966;-58
2023/07/09 10:39:22;;;;;;;;;13.67;13.67;;;;;;;;4990297;28;53162;-58
2023/07/09 10:41:49;;;;;;;;;7.00;7.00;;;;;;;;4988671;28;51122;-58
2023/07/09 10:44:44;;;;;;;;;11.00;11.00;;;;;;;;4983991;28;51093;-57
2023/07/09 10:47:14;;;;;;;;;11.67;11.67;;;;;;;;4968474;28;51478;-58
2023/07/09 10:49:41;;;;;;;;;13.00;13.00;;;;;;;;4982710;28;51762;-57
2023/07/09 10:52:12;;;;;;;;;11.33;11.00;;;;;;;;4987206;28;51016;-64
2023/07/09 10:54:41;;;;;;;;;12.67;11.67;;;;;;;;4986119;28;51158;-58
2023/07/09 10:57:09;;;;;;;;;13.67;13.00;;;;;;;;4985462;28;51071;-59
2023/07/09 10:59:37;;;;;;;;;11.67;11.00;;;;;;;;4985863;28;51848;-58
2023/07/09 11:02:21;;;;;;;;;11.67;10.67;;;;;;;;4982057;28;51300;-57
2023/07/09 11:04:55;;;;;;;;;14.67;13.67;;;;;;;;4989027;28;51347;-58
2023/07/09 11:07:26;;;;;;;;;13.00;12.00;;;;;;;;4982917;28;51221;-57
2023/07/09 11:09:54;;;;;;;;;13.00;13.00;;;;;;;;4982980;28;51259;-56
2023/07/09 11:12:24;;;;;;;;;11.33;11.00;;;;;;;;4984264;28;51112;-57
2023/07/09 11:15:10;;;;;;;;;13.50;13.00;;;;;;;;4987568;28;51001;-57
2023/07/09 11:17:38;;;;;;;;;12.00;12.00;;;;;;;;4983180;28;51338;-57
2023/07/09 11:20:15;;;;;;;;;13.00;12.00;;;;;;;;4980587;28;51933;-57
2023/07/09 11:22:41;;;;;;;;;12.33;12.00;;;;;;;;4978579;28;51006;-57
2023/07/09 11:25:09;;;;;;;;;12.67;12.67;;;;;;;;4984352;28;51045;-58
2023/07/09 11:27:45;;;;;;;;;12.00;12.00;;;;;;;;4988921;28;51981;-56
2023/07/09 11:30:19;;;;;;;;;10.00;10.00;;;;;;;;4984555;28;51861;-56
2023/07/09 11:32:47;;;;;;;;;10.67;8.67;;;;;;;;4992014;28;51146;-56
2023/07/09 11:35:23;;;;;;;;;9.00;9.00;;;;;;;;4989815;28;51225;-56
2023/07/09 11:37:48;;;;;;;;;11.67;10.00;;;;;;;;4992458;28;51111;-58
2023/07/09 11:40:14;;;;;;;;;9.33;8.67;;;;;;;;4985836;28;51784;-56
2023/07/09 11:42:54;;;;;;;;;9.67;8.67;;;;;;;;4988373;28;51303;-57
2023/07/09 11:45:25;;;;;;;;;11.67;11.67;;;;;;;;5000685;28;50901;-57
2023/07/09 11:47:53;;;;;;;;;10.00;10.00;;;;;;;;4994577;28;51086;-57
2023/07/09 11:50:28;;;;;;;;;7.67;7.67;;;;;;;;4994646;28;51054;-55
2023/07/09 11:52:53;;;;;;;;;8.00;8.00;;;;;;;;5002281;28;51152;-56
2023/07/09 11:55:24;;;;;;;;;7.33;7.33;;;;;;;;4999867;28;51450;-56
2023/07/09 11:57:56;;;;;;;;;8.00;7.00;;;;;;;;4985613;28;51136;-54
2023/07/09 12:00:22;;;;;;;;;9.33;8.67;;;;;;;;4989614;28;52080;-56
2023/07/09 12:02:48;;;;;;;;;9.67;9.67;;;;;;;;4992303;28;50939;-57
2023/07/09 12:05:17;;;;;;;;;6.67;6.00;;;;;;;;4983694;28;50923;-57
2023/07/09 12:07:43;;;;;;;;;8.00;7.00;;;;;;;;4986616;28;51146;-57
2023/07/09 12:10:17;;;;;;;;;9.67;9.00;;;;;;;;4995626;28;52156;-57
2023/07/09 12:12:42;;;;;;;;;11.00;10.67;;;;;;;;4991497;28;51042;-57
2023/07/09 12:15:15;;;;;;;;;6.33;6.33;;;;;;;;5000758;28;51071;-57
2023/07/09 12:17:40;;;;;;;;;7.67;7.67;;;;;;;;5004966;28;50972;-56
2023/07/09 12:20:06;;;;;;;;;8.00;8.00;;;;;;;;4998921;28;52173;-56
2023/07/09 12:22:31;;;;;;;;;9.67;9.33;;;;;;;;5001524;28;51044;-57
2023/07/09 12:24:57;;;;;;;;;8.00;7.00;;;;;;;;5005642;28;51291;-57
2023/07/09 12:27:24;;;;;;;;;8.00;7.67;;;;;;;;4990532;28;53092;-58
2023/07/09 12:29:51;;;;;;;;;8.67;8.67;;;;;;;;5005438;28;51813;-58
2023/07/09 12:32:18;;;;;;;;;11.00;7.67;;;;;;;;4998427;28;51125;-57
2023/07/09 12:34:53;;;;;;;;;8.33;8.33;;;;;;;;4991864;28;51201;-60
2023/07/09 12:37:20;;;;;;;;;12.00;12.00;;;;;;;;5002957;28;51165;-58
2023/07/09 12:39:46;;;;;;;;;9.00;9.00;;;;;;;;5002770;28;51088;-59
2023/07/09 12:42:28;;;;;;;;;7.67;7.00;;;;;;;;4992092;28;51181;-58
2023/07/09 12:44:53;;;;;;;;;8.00;8.00;;;;;;;;5003627;28;51149;-58
2023/07/09 12:47:20;;;;;;;;;7.67;7.33;;;;;;;;5000582;28;50993;-57
2023/07/09 12:49:47;;;;;;;;;8.67;8.67;;;;;;;;4988225;28;53328;-57
2023/07/09 12:52:21;;;;;;;;;10.00;8.67;;;;;;;;4998785;28;51435;-59
2023/07/09 12:54:56;;;;;;;;;7.00;7.00;;;;;;;;5005919;28;52114;-58
2023/07/09 12:57:22;;;;;;;;;5.00;4.67;;;;;;;;4998746;28;50954;-58
2023/07/09 12:59:48;;;;;;;;;8.00;8.00;;;;;;;;4994103;28;54436;-58
2023/07/09 13:02:36;;;;;;;;;10.00;10.00;;;;;;;;4999141;28;51218;-57
2023/07/09 13:05:04;;;;;;;;;5.67;5.67;;;;;;;;4984792;28;51074;-60
2023/07/09 13:07:33;;;;;;;;;10.00;9.67;;;;;;;;4990904;28;50985;-59
2023/07/09 13:10:03;;;;;;;;;6.00;6.00;;;;;;;;4995046;28;51893;-58
2023/07/09 13:12:30;;;;;;;;;7.00;7.00;;;;;;;;5005431;28;51113;-58
2023/07/09 13:14:56;;;;;;;;;7.00;7.00;;;;;;;;4996365;28;51125;-58
2023/07/09 13:17:21;;;;;;;;;8.00;8.00;;;;;;;;4977874;28;51232;-59
2023/07/09 13:19:47;;;;;;;;;8.00;8.00;;;;;;;;4976242;28;52266;-58
2023/07/09 13:22:16;;;;;;;;;8.33;8.33;;;;;;;;4982088;28;51277;-57
2023/07/09 13:24:42;;;;;;;;;8.00;7.67;;;;;;;;4994578;28;51110;-58
2023/07/09 13:27:11;;;;;;;;;7.67;7.67;;;;;;;;4993046;28;51842;-57
2023/07/09 13:29:36;;;;;;;;;8.67;8.00;;;;;;;;4983348;28;52884;-58
2023/07/09 13:32:01;;;;;;;;;7.33;7.33;;;;;;;;4992618;28;51009;-57
2023/07/09 13:34:28;;;;;;;;;11.00;10.00;;;;;;;;4987102;28;51267;-57
2023/07/09 13:36:53;;;;;;;;;8.00;8.00;;;;;;;;4991551;28;51214;-57
2023/07/09 13:39:19;;;;;;;;;11.00;10.00;;;;;;;;4984413;28;52770;-58
2023/07/09 13:41:46;;;;;;;;;9.67;9.67;;;;;;;;4984248;28;51098;-58
2023/07/09 13:44:13;;;;;;;;;10.00;8.67;;;;;;;;4988999;28;50912;-58
2023/07/09 13:46:38;;;;;;;;;6.33;6.33;;;;;;;;4992727;28;51128;-58
2023/07/09 13:49:04;;;;;;;;;10.67;10.00;;;;;;;;4993769;28;51478;-59
2023/07/09 13:51:30;;;;;;;;;6.67;6.67;;;;;;;;4975901;28;51113;-59
2023/07/09 13:53:55;;;;;;;;;8.33;8.33;;;;;;;;4996408;28;51164;-59
2023/07/09 13:56:21;;;;;;;;;7.00;7.00;;;;;;;;4983565;28;51058;-59
2023/07/09 13:58:47;;;;;;;;;7.67;7.00;;;;;;;;4988232;28;52874;-58
2023/07/09 14:01:14;;;;;;;;;7.00;7.00;;;;;;;;4987733;28;51093;-58
2023/07/09 14:03:40;;;;;;;;;7.00;7.00;;;;;;;;4989605;28;50879;-57
2023/07/09 14:06:05;;;;;;;;;7.00;6.00;;;;;;;;4987364;28;51052;-58
2023/07/09 14:08:30;;;;;;;;;9.00;8.67;;;;;;;;4989141;28;51939;-57
2023/07/09 14:10:56;;;;;;;;;8.00;8.00;;;;;;;;4991920;28;51037;-57
2023/07/09 14:13:23;;;;;;;;;7.00;7.00;;;;;;;;4989330;28;50851;-57
2023/07/09 14:15:48;;;;;;;;;7.67;7.33;;;;;;;;4993199;28;51159;-58
2023/07/09 14:18:18;;;;;;;;;9.00;8.00;;;;;;;;4991790;28;51032;-57
2023/07/09 14:20:43;;;;;;;;;8.00;8.00;;;;;;;;4984887;28;51060;-58
2023/07/09 14:23:13;;;;;;;;;9.67;8.67;;;;;;;;4988899;28;51224;-58
2023/07/09 14:25:38;;;;;;;;;7.67;7.67;;;;;;;;4988824;28;51109;-58
2023/07/09 14:28:10;;;;;;;;;6.67;6.00;;;;;;;;4987477;28;51030;-58